Wetterdaten: Sonntag, 04.01.2015
Datum Zeit Temperatur Luftfeuchte Luftdruck Regen Wind Richtung Richtung Taupunkt Windchill Windben
04.01.2015 00:00 5,7 C 89 % 1016,9 hPa 0,0 l/m 20,0 km/h (4 Bft) SW 225 4,0 C -6,0 C 33,8 km/h (5 Bft)
04.01.2015 00:05 5,6 C 89 % 1016,9 hPa 0,0 l/m 21,4 km/h (4 Bft) SW 225 3,9 C -7,0 C 23,0 km/h (4 Bft)
04.01.2015 00:10 5,5 C 89 % 1016,9 hPa 0,0 l/m 21,1 km/h (4 Bft) W 270 3,8 C -7,1 C 25,9 km/h (4 Bft)
04.01.2015 00:15 5,3 C 90 % 1017,1 hPa 0,0 l/m 17,9 km/h (3 Bft) W 270 3,8 C -5,6 C 16,7 km/h (3 Bft)
04.01.2015 00:20 5,4 C 91 % 1017,1 hPa 0,0 l/m 17,4 km/h (3 Bft) W 270 4,1 C -5,5 C 24,8 km/h (4 Bft)
04.01.2015 00:25 5,4 C 92 % 1017,1 hPa 0,0 l/m 17,7 km/h (3 Bft) W-SW 247 4,2 C -5,9 C 25,1 km/h (4 Bft)
04.01.2015 00:30 5,3 C 92 % 1017,1 hPa 0,0 l/m 17,7 km/h (3 Bft) W 270 4,1 C -5,9 C 25,6 km/h (4 Bft)
04.01.2015 00:35 5,4 C 93 % 1017,4 hPa 0,0 l/m 16,9 km/h (3 Bft) O-NO 67 4,4 C -5,3 C 25,4 km/h (4 Bft)
04.01.2015 00:38 5,3 C 93 % 1017,4 hPa 0,0 l/m 15,6 km/h (3 Bft) W 270 4,3 C -4,4 C 11,9 km/h (2 Bft)
04.01.2015 00:40 5,3 C 93 % 1017,4 hPa 0,0 l/m 15,6 km/h (3 Bft) W 270 4,3 C -4,4 C 34,0 km/h (5 Bft)
04.01.2015 00:45 5,4 C 93 % 1017,4 hPa 0,0 l/m 16,4 km/h (3 Bft) W-SW 247 4,4 C -5,0 C 24,9 km/h (4 Bft)
04.01.2015 00:50 5,3 C 94 % 1017,4 hPa 0,0 l/m 15,1 km/h (3 Bft) NW 315 4,4 C -4,0 C 11,9 km/h (2 Bft)
04.01.2015 00:55 5,1 C 94 % 1019,6 hPa 0,0 l/m 15,4 km/h (3 Bft) NW 315 4,2 C -4,5 C 24,5 km/h (4 Bft)
04.01.2015 01:00 2,3 C 94 % 1019,6 hPa 0,0 l/m 15,4 km/h (3 Bft) N-NW 337 1,4 C -8,1 C 11,9 km/h (2 Bft)
04.01.2015 01:05 1,9 C 94 % 1019,6 hPa 0,0 l/m 16,9 km/h (3 Bft) NW 315 1,0 C -10,4 C 11,7 km/h (2 Bft)
04.01.2015 01:10 1,6 C 94 % 1019,6 hPa 0,0 l/m 15,0 km/h (3 Bft) NW 315 0,7 C -10,1 C 11,6 km/h (2 Bft)
04.01.2015 01:15 1,4 C 94 % 1020,8 hPa 0,0 l/m 13,7 km/h (3 Bft) W 270 0,5 C -9,5 C 26,9 km/h (4 Bft)
04.01.2015 01:20 1,0 C 94 % 1020,8 hPa 0,0 l/m 13,8 km/h (3 Bft) W 270 0,1 C -10,2 C 15,9 km/h (3 Bft)
04.01.2015 01:25 0,9 C 94 % 1020,8 hPa 0,0 l/m 13,8 km/h (3 Bft) SW 225 0,0 C -10,6 C 14,3 km/h (3 Bft)
04.01.2015 01:30 0,6 C 94 % 1020,8 hPa 0,0 l/m 12,6 km/h (3 Bft) NW 315 -0,3 C -9,9 C 18,2 km/h (3 Bft)
04.01.2015 01:35 0,5 C 94 % 1021,8 hPa 0,0 l/m 11,1 km/h (2 Bft) N-NW 337 -0,4 C -8,4 C 7,9 km/h (2 Bft)
04.01.2015 01:40 0,4 C 94 % 1021,8 hPa 0,0 l/m 7,9 km/h (2 Bft) W-SW 247 -0,5 C -4,7 C 7,1 km/h (2 Bft)
04.01.2015 01:45 0,3 C 94 % 1021,8 hPa 0,0 l/m 6,3 km/h (2 Bft) W-NW 292 -0,5 C -2,5 C 6,3 km/h (2 Bft)
04.01.2015 01:50 0,3 C 95 % 1021,8 hPa 0,0 l/m 5,1 km/h (1 Bft) W-SW 247 -0,4 C -2,0 C 6,4 km/h (2 Bft)
04.01.2015 01:55 0,3 C 95 % 1022,2 hPa 0,0 l/m 5,1 km/h (1 Bft) W-NW 292 -0,4 C -1,9 C 6,9 km/h (2 Bft)
04.01.2015 02:00 0,4 C 95 % 1022,2 hPa 0,0 l/m 6,1 km/h (2 Bft) NW 315 -0,3 C -2,3 C 6,1 km/h (2 Bft)
04.01.2015 02:05 0,4 C 95 % 1022,2 hPa 0,0 l/m 5,8 km/h (2 Bft) W 270 -0,3 C -2,3 C 6,0 km/h (2 Bft)
04.01.2015 02:10 0,4 C 95 % 1022,2 hPa 0,0 l/m 5,8 km/h (2 Bft) W-SW 247 -0,3 C -2,2 C 9,0 km/h (2 Bft)
04.01.2015 02:15 0,4 C 95 % 1022,8 hPa 0,0 l/m 6,3 km/h (2 Bft) NW 315 -0,3 C -2,5 C 6,0 km/h (2 Bft)
04.01.2015 02:20 0,4 C 95 % 1022,8 hPa 0,0 l/m 5,6 km/h (1 Bft) W-SW 247 -0,3 C -2,2 C 8,4 km/h (2 Bft)
04.01.2015 02:25 0,4 C 95 % 1022,8 hPa 0,0 l/m 6,9 km/h (2 Bft) SW 225 -0,3 C -3,3 C 9,2 km/h (2 Bft)
04.01.2015 02:30 0,5 C 96 % 1022,8 hPa 0,0 l/m 7,6 km/h (2 Bft) W-NW 292 -0,1 C -4,3 C 11,1 km/h (2 Bft)
04.01.2015 02:35 0,5 C 96 % 1023,2 hPa 0,0 l/m 7,2 km/h (2 Bft) W 270 -0,1 C -3,7 C 8,4 km/h (2 Bft)
04.01.2015 02:40 0,5 C 96 % 1023,2 hPa 0,0 l/m 6,4 km/h (2 Bft) W-SW 247 -0,1 C -2,5 C 6,8 km/h (2 Bft)
04.01.2015 02:45 0,5 C 96 % 1023,2 hPa 0,0 l/m 5,5 km/h (1 Bft) W-NW 292 -0,1 C -2,1 C 6,1 km/h (2 Bft)
04.01.2015 02:50 0,5 C 96 % 1023,2 hPa 0,0 l/m 5,0 km/h (1 Bft) SW 225 -0,1 C -1,8 C 10,0 km/h (2 Bft)
04.01.2015 02:55 0,5 C 96 % 1023,1 hPa 0,0 l/m 5,3 km/h (1 Bft) SW 225 -0,1 C -2,0 C 9,2 km/h (2 Bft)
04.01.2015 03:00 0,4 C 96 % 1023,1 hPa 0,0 l/m 6,1 km/h (2 Bft) SW 225 -0,2 C -2,3 C 6,1 km/h (2 Bft)
04.01.2015 03:05 0,3 C 96 % 1023,1 hPa 0,0 l/m 6,0 km/h (2 Bft) S-SW 202 -0,3 C -2,3 C 4,5 km/h (1 Bft)
04.01.2015 03:10 0,3 C 96 % 1023,1 hPa 0,0 l/m 3,9 km/h (1 Bft) W-NW 292 -0,3 C -1,4 C 4,0 km/h (1 Bft)
04.01.2015 03:15 0,3 C 96 % 1023,2 hPa 0,0 l/m 2,7 km/h (1 Bft) SW 225 -0,3 C -0,8 C 5,1 km/h (1 Bft)
04.01.2015 03:20 0,2 C 96 % 1023,2 hPa 0,0 l/m 3,4 km/h (1 Bft) S 180 -0,4 C -1,2 C 3,7 km/h (1 Bft)
04.01.2015 03:25 0,2 C 96 % 1023,2 hPa 0,0 l/m 3,7 km/h (1 Bft) W 270 -0,4 C -1,4 C 5,3 km/h (1 Bft)
04.01.2015 03:30 0,2 C 96 % 1023,2 hPa 0,0 l/m 3,1 km/h (1 Bft) W 270 -0,4 C -1,3 C 1,9 km/h (1 Bft)
04.01.2015 03:35 0,2 C 96 % 1023,4 hPa 0,0 l/m 2,4 km/h (1 Bft) W 270 -0,4 C -0,8 C 3,2 km/h (1 Bft)
04.01.2015 03:40 0,3 C 96 % 1023,4 hPa 0,0 l/m 1,9 km/h (1 Bft) W 270 -0,3 C -0,6 C 2,6 km/h (1 Bft)
04.01.2015 03:45 0,4 C 96 % 1023,4 hPa 0,0 l/m 2,3 km/h (1 Bft) W 270 -0,2 C -0,5 C 1,6 km/h (1 Bft)
04.01.2015 03:50 0,4 C 97 % 1023,4 hPa 0,0 l/m 3,1 km/h (1 Bft) SW 225 -0,0 C -0,8 C 5,0 km/h (1 Bft)
04.01.2015 03:55 0,5 C 97 % 1023,5 hPa 0,0 l/m 2,9 km/h (1 Bft) W 270 0,1 C -0,7 C 4,5 km/h (1 Bft)
04.01.2015 04:00 0,5 C 97 % 1023,5 hPa 0,0 l/m 3,4 km/h (1 Bft) W 270 0,1 C -0,9 C 5,3 km/h (1 Bft)
04.01.2015 04:05 0,6 C 97 % 1023,5 hPa 0,0 l/m 4,5 km/h (1 Bft) W-NW 292 0,2 C -1,3 C 4,5 km/h (1 Bft)
04.01.2015 04:10 0,6 C 97 % 1023,5 hPa 0,0 l/m 3,4 km/h (1 Bft) W-SW 247 0,2 C -0,7 C 2,3 km/h (1 Bft)
04.01.2015 04:15 0,6 C 97 % 1023,8 hPa 0,0 l/m 1,4 km/h (1 Bft) S-SO 157 0,2 C 0,0 C 1,6 km/h (1 Bft)
04.01.2015 04:20 0,6 C 97 % 1023,8 hPa 0,0 l/m 1,8 km/h (1 Bft) W 270 0,2 C 0,0 C 7,2 km/h (2 Bft)
04.01.2015 04:25 0,6 C 97 % 1023,8 hPa 0,0 l/m 2,6 km/h (1 Bft) W-SW 247 0,2 C -0,1 C 4,2 km/h (1 Bft)
04.01.2015 04:30 0,6 C 97 % 1023,8 hPa 0,0 l/m 3,5 km/h (1 Bft) W-SW 247 0,2 C -0,7 C 2,6 km/h (1 Bft)
04.01.2015 04:35 0,6 C 97 % 1024,0 hPa 0,0 l/m 3,9 km/h (1 Bft) W-SW 247 0,2 C -0,9 C 4,3 km/h (1 Bft)
04.01.2015 04:38 0,6 C 97 % 1024,0 hPa 0,0 l/m 4,7 km/h (1 Bft) W-SW 247 0,2 C -1,2 C 6,0 km/h (2 Bft)
04.01.2015 04:40 0,6 C 97 % 1024,0 hPa 0,0 l/m 4,7 km/h (1 Bft) W-SW 247 0,2 C -1,2 C 6,0 km/h (2 Bft)
04.01.2015 04:45 0,6 C 97 % 1024,0 hPa 0,0 l/m 5,5 km/h (1 Bft) W 270 0,2 C -1,6 C 6,8 km/h (2 Bft)
04.01.2015 04:50 0,7 C 97 % 1024,0 hPa 0,0 l/m 6,6 km/h (2 Bft) W 270 0,3 C -2,2 C 10,5 km/h (2 Bft)
04.01.2015 04:55 0,7 C 97 % 1024,3 hPa 0,0 l/m 7,1 km/h (2 Bft) W 270 0,3 C -2,9 C 11,4 km/h (2 Bft)
04.01.2015 05:00 0,6 C 97 % 1024,3 hPa 0,0 l/m 5,8 km/h (2 Bft) W-NW 292 0,2 C -1,6 C 8,0 km/h (2 Bft)
04.01.2015 05:05 0,6 C 97 % 1024,3 hPa 0,0 l/m 4,8 km/h (1 Bft) N-NW 337 0,2 C -1,3 C 7,4 km/h (2 Bft)
04.01.2015 05:10 0,5 C 97 % 1024,3 hPa 0,0 l/m 4,8 km/h (1 Bft) W 270 0,1 C -1,3 C 3,4 km/h (1 Bft)
04.01.2015 05:15 0,5 C 97 % 1024,8 hPa 0,0 l/m 4,5 km/h (1 Bft) W 270 0,1 C -1,2 C 9,8 km/h (2 Bft)
04.01.2015 05:20 0,5 C 97 % 1024,8 hPa 0,0 l/m 5,1 km/h (1 Bft) W-SW 247 0,1 C -1,6 C 5,3 km/h (1 Bft)
04.01.2015 05:25 0,4 C 97 % 1024,8 hPa 0,0 l/m 5,8 km/h (2 Bft) W 270 -0,0 C -1,9 C 4,8 km/h (1 Bft)
04.01.2015 05:30 0,3 C 97 % 1024,8 hPa 0,0 l/m 6,1 km/h (2 Bft) W-NW 292 -0,1 C -2,1 C 10,9 km/h (2 Bft)
04.01.2015 05:35 0,3 C 97 % 1025,0 hPa 0,0 l/m 6,4 km/h (2 Bft) W 270 -0,1 C -2,5 C 4,2 km/h (1 Bft)
04.01.2015 05:40 0,3 C 97 % 1025,0 hPa 0,0 l/m 5,8 km/h (2 Bft) W 270 -0,1 C -2,3 C 4,3 km/h (1 Bft)
04.01.2015 05:45 0,3 C 97 % 1025,0 hPa 0,0 l/m 5,3 km/h (1 Bft) NW 315 -0,1 C -2,1 C 6,0 km/h (2 Bft)
04.01.2015 05:50 0,3 C 97 % 1025,0 hPa 0,0 l/m 6,0 km/h (2 Bft) W-NW 292 -0,1 C -2,3 C 7,4 km/h (2 Bft)
04.01.2015 05:55 0,3 C 97 % 1025,3 hPa 0,0 l/m 5,8 km/h (2 Bft) SW 225 -0,1 C -2,3 C 7,2 km/h (2 Bft)
04.01.2015 06:00 0,3 C 97 % 1025,3 hPa 0,0 l/m 5,6 km/h (1 Bft) NW 315 -0,1 C -2,2 C 4,2 km/h (1 Bft)
04.01.2015 06:05 0,3 C 97 % 1025,3 hPa 0,0 l/m 6,1 km/h (2 Bft) W-NW 292 -0,1 C -2,3 C 7,9 km/h (2 Bft)
04.01.2015 06:10 0,3 C 97 % 1025,3 hPa 0,0 l/m 6,3 km/h (2 Bft) W 270 -0,1 C -2,4 C 7,9 km/h (2 Bft)
04.01.2015 06:15 0,2 C 97 % 1025,7 hPa 0,0 l/m 7,1 km/h (2 Bft) W 270 -0,2 C -3,6 C 12,1 km/h (2 Bft)
04.01.2015 06:20 0,2 C 97 % 1025,7 hPa 0,0 l/m 7,6 km/h (2 Bft) SW 225 -0,2 C -4,3 C 7,2 km/h (2 Bft)
04.01.2015 06:25 0,2 C 97 % 1025,7 hPa 0,0 l/m 7,2 km/h (2 Bft) N-NW 337 -0,2 C -3,8 C 8,7 km/h (2 Bft)
04.01.2015 06:30 0,1 C 97 % 1025,7 hPa 0,0 l/m 5,3 km/h (1 Bft) NW 315 -0,3 C -2,2 C 5,1 km/h (1 Bft)
04.01.2015 06:35 0,1 C 97 % 1025,9 hPa 0,0 l/m 4,5 km/h (1 Bft) NW 315 -0,3 C -1,8 C 3,1 km/h (1 Bft)
04.01.2015 06:40 0,1 C 97 % 1025,9 hPa 0,0 l/m 4,2 km/h (1 Bft) W 270 -0,3 C -1,6 C 4,5 km/h (1 Bft)
04.01.2015 06:45 0,1 C 97 % 1025,9 hPa 0,0 l/m 4,8 km/h (1 Bft) W-NW 292 -0,3 C -1,9 C 9,7 km/h (2 Bft)
04.01.2015 06:50 0,1 C 97 % 1025,9 hPa 0,0 l/m 6,3 km/h (2 Bft) NW 315 -0,3 C -2,6 C 9,5 km/h (2 Bft)
04.01.2015 06:55 0,1 C 97 % 1026,0 hPa 0,0 l/m 7,2 km/h (2 Bft) W-SW 247 -0,3 C -3,8 C 14,0 km/h (3 Bft)
04.01.2015 07:00 0,1 C 97 % 1026,0 hPa 0,0 l/m 7,6 km/h (2 Bft) W 270 -0,3 C -4,6 C 7,6 km/h (2 Bft)
04.01.2015 07:05 0,1 C 97 % 1026,0 hPa 0,0 l/m 8,2 km/h (2 Bft) W-SW 247 -0,3 C -5,3 C 10,8 km/h (2 Bft)
04.01.2015 07:10 0,1 C 97 % 1026,0 hPa 0,0 l/m 8,7 km/h (2 Bft) W-SW 247 -0,3 C -6,1 C 13,0 km/h (3 Bft)
04.01.2015 07:15 0,0 C 97 % 1026,1 hPa 0,0 l/m 8,5 km/h (2 Bft) W 270 -0,4 C -5,9 C 8,4 km/h (2 Bft)
04.01.2015 07:20 0,0 C 97 % 1026,1 hPa 0,0 l/m 7,6 km/h (2 Bft) W-NW 292 -0,4 C -4,6 C 5,6 km/h (1 Bft)
04.01.2015 07:25 0,0 C 97 % 1026,1 hPa 0,0 l/m 6,6 km/h (2 Bft) NW 315 -0,4 C -3,1 C 6,1 km/h (2 Bft)
04.01.2015 07:30 0,0 C 97 % 1026,1 hPa 0,0 l/m 6,8 km/h (2 Bft) NW 315 -0,4 C -3,3 C 10,0 km/h (2 Bft)
04.01.2015 07:35 0,0 C 97 % 1026,4 hPa 0,0 l/m 6,6 km/h (2 Bft) NW 315 -0,4 C -3,1 C 6,0 km/h (2 Bft)
04.01.2015 07:38 0,0 C 97 % 1026,4 hPa 0,0 l/m 6,0 km/h (2 Bft) W-NW 292 -0,4 C -2,6 C 6,0 km/h (2 Bft)
04.01.2015 07:40 0,0 C 97 % 1026,4 hPa 0,0 l/m 6,0 km/h (2 Bft) W-NW 292 -0,4 C -2,6 C 6,0 km/h (2 Bft)
04.01.2015 07:45 0,0 C 97 % 1026,4 hPa 0,0 l/m 6,0 km/h (2 Bft) W 270 -0,4 C -2,6 C 5,1 km/h (1 Bft)
04.01.2015 07:50 0,0 C 97 % 1026,4 hPa 0,0 l/m 6,0 km/h (2 Bft) NW 315 -0,4 C -2,6 C 5,3 km/h (1 Bft)
04.01.2015 07:55 0,1 C 97 % 1026,6 hPa 0,0 l/m 5,5 km/h (1 Bft) NW 315 -0,3 C -2,4 C 5,0 km/h (1 Bft)
04.01.2015 08:00 0,1 C 97 % 1026,6 hPa 0,0 l/m 4,5 km/h (1 Bft) W-NW 292 -0,3 C -1,9 C 5,0 km/h (1 Bft)
04.01.2015 08:05 0,1 C 97 % 1026,6 hPa 0,0 l/m 4,2 km/h (1 Bft) NW 315 -0,3 C -1,7 C 4,3 km/h (1 Bft)
04.01.2015 08:10 -0,1 C 97 % 1026,6 hPa 0,0 l/m 4,8 km/h (1 Bft) S-SW 202 -0,5 C -2,1 C 9,0 km/h (2 Bft)
04.01.2015 08:15 -0,1 C 97 % 1026,9 hPa 0,0 l/m 5,0 km/h (1 Bft) NW 315 -0,5 C -2,3 C 4,7 km/h (1 Bft)
04.01.2015 08:20 -0,1 C 97 % 1026,9 hPa 0,0 l/m 5,1 km/h (1 Bft) NW 315 -0,5 C -2,3 C 5,3 km/h (1 Bft)
04.01.2015 08:25 -0,1 C 97 % 1026,9 hPa 0,0 l/m 4,5 km/h (1 Bft) W-NW 292 -0,5 C -2,2 C 2,7 km/h (1 Bft)
04.01.2015 08:30 -0,1 C 97 % 1026,9 hPa 0,0 l/m 3,9 km/h (1 Bft) W 270 -0,5 C -1,8 C 5,0 km/h (1 Bft)
04.01.2015 08:35 -0,1 C 97 % 1027,0 hPa 0,0 l/m 4,0 km/h (1 Bft) W-NW 292 -0,5 C -1,9 C 5,8 km/h (2 Bft)
04.01.2015 08:40 -0,1 C 97 % 1027,0 hPa 0,0 l/m 5,8 km/h (2 Bft) W-NW 292 -0,5 C -2,7 C 10,3 km/h (2 Bft)
04.01.2015 08:45 -0,1 C 97 % 1027,0 hPa 0,0 l/m 6,6 km/h (2 Bft) NW 315 -0,5 C -3,2 C 6,1 km/h (2 Bft)
04.01.2015 08:50 -0,1 C 97 % 1027,0 hPa 0,0 l/m 8,0 km/h (2 Bft) NW 315 -0,5 C -5,3 C 10,9 km/h (2 Bft)
04.01.2015 08:55 -0,1 C 97 % 1027,1 hPa 0,0 l/m 7,6 km/h (2 Bft) W 270 -0,5 C -4,7 C 5,6 km/h (1 Bft)
04.01.2015 09:00 -0,2 C 97 % 1027,1 hPa 0,0 l/m 6,3 km/h (2 Bft) W 270 -0,6 C -3,0 C 6,4 km/h (2 Bft)
04.01.2015 09:05 -0,4 C 97 % 1027,1 hPa 0,0 l/m 5,5 km/h (1 Bft) NW 315 -0,8 C -2,7 C 4,3 km/h (1 Bft)
04.01.2015 09:10 -0,4 C 97 % 1027,1 hPa 0,0 l/m 4,7 km/h (1 Bft) W-SW 247 -0,8 C -2,4 C 5,3 km/h (1 Bft)
04.01.2015 09:15 -0,3 C 97 % 1027,5 hPa 0,0 l/m 4,5 km/h (1 Bft) W 270 -0,7 C -2,3 C 3,7 km/h (1 Bft)
04.01.2015 09:20 -0,2 C 97 % 1027,5 hPa 0,0 l/m 3,5 km/h (1 Bft) W 270 -0,6 C -1,6 C 4,2 km/h (1 Bft)
04.01.2015 09:25 -0,2 C 97 % 1027,5 hPa 0,0 l/m 3,4 km/h (1 Bft) NW 315 -0,6 C -1,5 C 2,3 km/h (1 Bft)
04.01.2015 09:30 -0,3 C 97 % 1027,5 hPa 0,0 l/m 3,5 km/h (1 Bft) S-SW 202 -0,7 C -1,6 C 4,5 km/h (1 Bft)
04.01.2015 09:35 -0,4 C 97 % 1027,5 hPa 0,0 l/m 3,5 km/h (1 Bft) S-SW 202 -0,8 C -1,6 C 4,5 km/h (1 Bft)
04.01.2015 09:40 -0,5 C 97 % 1027,5 hPa 0,0 l/m 5,8 km/h (2 Bft) W-SW 247 -0,9 C -2,8 C 8,5 km/h (2 Bft)
04.01.2015 09:45 -0,6 C 97 % 1027,5 hPa 0,0 l/m 5,8 km/h (2 Bft) W-SW 247 -1,0 C -2,8 C 8,5 km/h (2 Bft)
04.01.2015 09:50 -0,5 C 97 % 1027,5 hPa 0,0 l/m 5,8 km/h (2 Bft) W-SW 247 -0,9 C -2,8 C 8,5 km/h (2 Bft)
04.01.2015 09:55 -0,4 C 97 % 1027,9 hPa 0,0 l/m 0,0 km/h (0 Bft) W-SW 247 -0,8 C -2,8 C 0,0 km/h (0 Bft)
04.01.2015 10:00 -0,2 C 97 % 1027,9 hPa 0,0 l/m 0,0 km/h (0 Bft) W-SW 247 -0,6 C -2,8 C 0,0 km/h (0 Bft)
04.01.2015 10:05 -0,2 C 97 % 1027,9 hPa 0,0 l/m 0,0 km/h (0 Bft) W-SW 247 -0,6 C -2,8 C 0,0 km/h (0 Bft)
04.01.2015 10:10 -0,4 C 97 % 1027,9 hPa 0,0 l/m 0,0 km/h (0 Bft) W-SW 247 -0,8 C -2,8 C 0,0 km/h (0 Bft)
04.01.2015 10:15 -0,4 C 97 % 1028,4 hPa 0,0 l/m 0,0 km/h (0 Bft) W-SW 247 -0,8 C -2,8 C 0,0 km/h (0 Bft)
04.01.2015 10:20 -0,2 C 97 % 1028,4 hPa 0,0 l/m 0,0 km/h (0 Bft) W-SW 247 -0,6 C -2,8 C 0,0 km/h (0 Bft)
04.01.2015 10:25 -0,2 C 97 % 1028,4 hPa 0,0 l/m 0,0 km/h (0 Bft) W-SW 247 -0,6 C -2,8 C 0,0 km/h (0 Bft)
04.01.2015 10:30 -0,1 C 97 % 1028,4 hPa 0,0 l/m 0,0 km/h (0 Bft) W-SW 247 -0,5 C -2,8 C 0,0 km/h (0 Bft)
04.01.2015 10:33 0,0 C 97 % 1028,9 hPa 0,0 l/m 0,0 km/h (0 Bft) W-SW 247 -0,4 C -2,8 C 0,0 km/h (0 Bft)
04.01.2015 10:35 0,0 C 97 % 1028,9 hPa 0,0 l/m 0,0 km/h (0 Bft) W-SW 247 -0,4 C -2,8 C 0,0 km/h (0 Bft)
04.01.2015 10:40 0,0 C 97 % 1028,9 hPa 0,0 l/m 0,0 km/h (0 Bft) W-SW 247 -0,4 C -2,8 C 0,0 km/h (0 Bft)
04.01.2015 10:45 0,0 C 97 % 1028,9 hPa 0,0 l/m 0,0 km/h (0 Bft) W-SW 247 -0,4 C -2,8 C 0,0 km/h (0 Bft)
04.01.2015 10:50 0,1 C 97 % 1028,9 hPa 0,0 l/m 0,0 km/h (0 Bft) W-SW 247 -0,3 C -2,8 C 0,0 km/h (0 Bft)
04.01.2015 10:55 0,2 C 97 % 1029,4 hPa 0,0 l/m 0,0 km/h (0 Bft) W-SW 247 -0,2 C -2,8 C 0,0 km/h (0 Bft)
04.01.2015 11:00 0,2 C 97 % 1029,4 hPa 0,0 l/m 0,0 km/h (0 Bft) W-SW 247 -0,2 C -2,8 C 0,0 km/h (0 Bft)
04.01.2015 11:05 0,3 C 97 % 1029,4 hPa 0,0 l/m 0,0 km/h (0 Bft) W-SW 247 -0,1 C -2,8 C 0,0 km/h (0 Bft)
04.01.2015 11:10 0,4 C 97 % 1029,4 hPa 0,0 l/m 0,0 km/h (0 Bft) W-SW 247 -0,0 C -2,8 C 0,0 km/h (0 Bft)
04.01.2015 11:15 0,4 C 97 % 1029,5 hPa 0,0 l/m 0,0 km/h (0 Bft) W-SW 247 -0,0 C -2,8 C 0,0 km/h (0 Bft)
04.01.2015 11:20 0,4 C 97 % 1029,5 hPa 0,0 l/m 0,0 km/h (0 Bft) W-SW 247 -0,0 C -2,8 C 0,0 km/h (0 Bft)
04.01.2015 11:25 0,4 C 97 % 1029,5 hPa 0,0 l/m 0,0 km/h (0 Bft) W-SW 247 -0,0 C -2,8 C 0,0 km/h (0 Bft)
04.01.2015 11:30 0,2 C 97 % 1029,5 hPa 0,0 l/m 0,0 km/h (0 Bft) W-SW 247 -0,2 C -2,8 C 0,0 km/h (0 Bft)
04.01.2015 11:35 0,0 C 97 % 1029,7 hPa 0,0 l/m 0,0 km/h (0 Bft) W-SW 247 -0,4 C -2,8 C 0,0 km/h (0 Bft)
04.01.2015 11:40 0,1 C 97 % 1029,7 hPa 0,0 l/m 0,0 km/h (0 Bft) W-SW 247 -0,3 C -2,8 C 0,0 km/h (0 Bft)
04.01.2015 11:45 0,1 C 97 % 1029,7 hPa 0,0 l/m 0,0 km/h (0 Bft) W-SW 247 -0,3 C -2,8 C 0,0 km/h (0 Bft)
04.01.2015 11:50 0,2 C 97 % 1029,7 hPa 0,0 l/m 0,0 km/h (0 Bft) W-SW 247 -0,2 C -2,8 C 0,0 km/h (0 Bft)
04.01.2015 11:55 0,3 C 97 % 1029,5 hPa 0,0 l/m 0,0 km/h (0 Bft) W-SW 247 -0,1 C -2,8 C 0,0 km/h (0 Bft)
04.01.2015 12:00 0,4 C 97 % 1029,5 hPa 0,0 l/m 0,0 km/h (0 Bft) W-SW 247 -0,0 C -2,8 C 0,0 km/h (0 Bft)
04.01.2015 12:05 0,3 C 97 % 1029,5 hPa 0,0 l/m 0,0 km/h (0 Bft) W-SW 247 -0,1 C -2,8 C 0,0 km/h (0 Bft)
04.01.2015 12:10 0,3 C 97 % 1029,5 hPa 0,0 l/m 0,0 km/h (0 Bft) W-SW 247 -0,1 C -2,8 C 0,0 km/h (0 Bft)
04.01.2015 12:15 0,3 C 97 % 1029,6 hPa 0,0 l/m 0,0 km/h (0 Bft) W-SW 247 -0,1 C -2,8 C 0,0 km/h (0 Bft)
04.01.2015 12:20 -0,1 C 96 % 1029,6 hPa 0,0 l/m 0,0 km/h (0 Bft) W-SW 247 -0,7 C -2,8 C 0,0 km/h (0 Bft)
04.01.2015 12:25 -0,1 C 96 % 1029,6 hPa 0,0 l/m 0,0 km/h (0 Bft) W-SW 247 -0,7 C -2,8 C 0,0 km/h (0 Bft)
04.01.2015 12:30 0,2 C 97 % 1029,6 hPa 0,0 l/m 0,0 km/h (0 Bft) W-SW 247 -0,2 C -2,8 C 0,0 km/h (0 Bft)
04.01.2015 12:35 0,1 C 97 % 1030,1 hPa 0,0 l/m 0,0 km/h (0 Bft) W-SW 247 -0,3 C -2,8 C 0,0 km/h (0 Bft)
04.01.2015 12:40 0,1 C 97 % 1030,1 hPa 0,0 l/m 0,0 km/h (0 Bft) W-SW 247 -0,3 C -2,8 C 0,0 km/h (0 Bft)
04.01.2015 12:45 0,0 C 97 % 1030,1 hPa 0,0 l/m 0,0 km/h (0 Bft) W-SW 247 -0,4 C -2,8 C 0,0 km/h (0 Bft)
04.01.2015 12:50 0,0 C 97 % 1030,1 hPa 0,0 l/m 0,0 km/h (0 Bft) W-SW 247 -0,4 C -2,8 C 0,0 km/h (0 Bft)
04.01.2015 12:55 0,1 C 96 % 1029,7 hPa 0,0 l/m 0,0 km/h (0 Bft) W-SW 247 -0,5 C -2,8 C 0,0 km/h (0 Bft)
04.01.2015 13:00 0,0 C 96 % 1029,7 hPa 0,0 l/m 0,0 km/h (0 Bft) W-SW 247 -0,6 C -2,8 C 0,0 km/h (0 Bft)
04.01.2015 13:05 -0,2 C 96 % 1029,7 hPa 0,0 l/m 0,0 km/h (0 Bft) W-SW 247 -0,8 C -2,8 C 0,0 km/h (0 Bft)
04.01.2015 13:10 -0,1 C 96 % 1029,7 hPa 0,0 l/m 0,0 km/h (0 Bft) W-SW 247 -0,7 C -2,8 C 0,0 km/h (0 Bft)
04.01.2015 13:15 0,2 C 96 % 1029,6 hPa 0,0 l/m 0,0 km/h (0 Bft) W-SW 247 -0,4 C -2,8 C 0,0 km/h (0 Bft)
04.01.2015 13:20 0,3 C 96 % 1029,6 hPa 0,0 l/m 0,0 km/h (0 Bft) W-SW 247 -0,3 C -2,8 C 0,0 km/h (0 Bft)
04.01.2015 13:25 0,3 C 96 % 1029,6 hPa 0,0 l/m 0,0 km/h (0 Bft) W-SW 247 -0,3 C -2,8 C 0,0 km/h (0 Bft)
04.01.2015 13:30 0,3 C 96 % 1029,6 hPa 0,0 l/m 0,0 km/h (0 Bft) W-SW 247 -0,3 C -2,8 C 0,0 km/h (0 Bft)
04.01.2015 13:33 0,3 C 96 % 1029,6 hPa 0,0 l/m 0,0 km/h (0 Bft) W-SW 247 -0,3 C -2,8 C 0,0 km/h (0 Bft)
04.01.2015 13:35 0,3 C 96 % 1029,6 hPa 0,0 l/m 0,0 km/h (0 Bft) W-SW 247 -0,3 C -2,8 C 0,0 km/h (0 Bft)
04.01.2015 13:40 0,1 C 96 % 1029,6 hPa 0,0 l/m 0,0 km/h (0 Bft) W-SW 247 -0,5 C -2,8 C 0,0 km/h (0 Bft)
04.01.2015 13:45 0,0 C 96 % 1029,6 hPa 0,0 l/m 0,0 km/h (0 Bft) W-SW 247 -0,6 C -2,8 C 0,0 km/h (0 Bft)
04.01.2015 13:50 -0,2 C 96 % 1029,6 hPa 0,0 l/m 0,0 km/h (0 Bft) W-SW 247 -0,8 C -2,8 C 0,0 km/h (0 Bft)
04.01.2015 13:55 -0,3 C 96 % 1029,8 hPa 0,0 l/m 0,0 km/h (0 Bft) W-SW 247 -0,9 C -2,8 C 0,0 km/h (0 Bft)
04.01.2015 14:00 -0,3 C 96 % 1029,8 hPa 0,0 l/m 0,0 km/h (0 Bft) W-SW 247 -0,9 C -2,8 C 0,0 km/h (0 Bft)
04.01.2015 14:05 -0,3 C 96 % 1029,8 hPa 0,0 l/m 0,0 km/h (0 Bft) W-SW 247 -0,9 C -2,8 C 0,0 km/h (0 Bft)
04.01.2015 14:10 -0,3 C 96 % 1029,8 hPa 0,0 l/m 0,0 km/h (0 Bft) W-SW 247 -0,9 C -2,8 C 0,0 km/h (0 Bft)
04.01.2015 14:15 -0,3 C 96 % 1029,9 hPa 0,0 l/m 0,0 km/h (0 Bft) W-SW 247 -0,9 C -2,8 C 0,0 km/h (0 Bft)
04.01.2015 14:20 -0,3 C 96 % 1029,9 hPa 0,0 l/m 0,0 km/h (0 Bft) W-SW 247 -0,9 C -2,8 C 0,0 km/h (0 Bft)
04.01.2015 14:25 -0,3 C 96 % 1029,9 hPa 0,0 l/m 0,0 km/h (0 Bft) W-SW 247 -0,9 C -2,8 C 0,0 km/h (0 Bft)
04.01.2015 14:30 -0,3 C 96 % 1029,9 hPa 0,0 l/m 0,0 km/h (0 Bft) W-SW 247 -0,9 C -2,8 C 0,0 km/h (0 Bft)
04.01.2015 14:35 -0,3 C 96 % 1030,2 hPa 0,0 l/m 0,0 km/h (0 Bft) W-SW 247 -0,9 C -2,8 C 0,0 km/h (0 Bft)
04.01.2015 14:40 -0,3 C 96 % 1030,2 hPa 0,0 l/m 0,0 km/h (0 Bft) W-SW 247 -0,9 C -2,8 C 0,0 km/h (0 Bft)
04.01.2015 14:45 -0,3 C 96 % 1030,2 hPa 0,0 l/m 0,0 km/h (0 Bft) W-SW 247 -0,9 C -2,8 C 0,0 km/h (0 Bft)
04.01.2015 14:50 -0,3 C 96 % 1030,2 hPa 0,0 l/m 0,0 km/h (0 Bft) W-SW 247 -0,9 C -2,8 C 0,0 km/h (0 Bft)
04.01.2015 14:55 -0,3 C 96 % 1030,2 hPa 0,0 l/m 0,0 km/h (0 Bft) W-SW 247 -0,9 C -2,8 C 0,0 km/h (0 Bft)
04.01.2015 15:00 -0,3 C 96 % 1030,2 hPa 0,0 l/m 0,0 km/h (0 Bft) W-SW 247 -0,9 C -2,8 C 0,0 km/h (0 Bft)
04.01.2015 15:05 -0,3 C 96 % 1030,2 hPa 0,0 l/m 0,0 km/h (0 Bft) W-SW 247 -0,9 C -2,8 C 0,0 km/h (0 Bft)
04.01.2015 15:10 -0,3 C 96 % 1030,2 hPa 0,0 l/m 0,0 km/h (0 Bft) W-SW 247 -0,9 C -2,8 C 0,0 km/h (0 Bft)
04.01.2015 15:15 -0,3 C 96 % 1030,2 hPa 0,0 l/m 0,0 km/h (0 Bft) W-SW 247 -0,9 C -2,8 C 0,0 km/h (0 Bft)
04.01.2015 15:20 -0,3 C 96 % 1030,2 hPa 0,0 l/m 0,0 km/h (0 Bft) W-SW 247 -0,9 C -2,8 C 0,0 km/h (0 Bft)
04.01.2015 15:25 -0,3 C 96 % 1030,2 hPa 0,0 l/m 0,0 km/h (0 Bft) W-SW 247 -0,9 C -2,8 C 0,0 km/h (0 Bft)
04.01.2015 15:30 -0,3 C 96 % 1030,2 hPa 0,0 l/m 0,0 km/h (0 Bft) W-SW 247 -0,9 C -2,8 C 0,0 km/h (0 Bft)
04.01.2015 15:35 -0,3 C 96 % 1030,4 hPa 0,0 l/m 0,0 km/h (0 Bft) W-SW 247 -0,9 C -2,8 C 0,0 km/h (0 Bft)
04.01.2015 15:40 -0,3 C 96 % 1030,4 hPa 0,0 l/m 0,0 km/h (0 Bft) W-SW 247 -0,9 C -2,8 C 0,0 km/h (0 Bft)
04.01.2015 15:45 -0,3 C 96 % 1030,4 hPa 0,0 l/m 0,0 km/h (0 Bft) W-SW 247 -0,9 C -2,8 C 0,0 km/h (0 Bft)
04.01.2015 15:50 -0,3 C 96 % 1030,4 hPa 0,0 l/m 0,0 km/h (0 Bft) W-SW 247 -0,9 C -2,8 C 0,0 km/h (0 Bft)
04.01.2015 15:55 -0,3 C 96 % 1030,6 hPa 0,0 l/m 0,0 km/h (0 Bft) W-SW 247 -0,9 C -2,8 C 0,0 km/h (0 Bft)
04.01.2015 16:00 -0,3 C 96 % 1030,6 hPa 0,0 l/m 0,0 km/h (0 Bft) W-SW 247 -0,9 C -2,8 C 0,0 km/h (0 Bft)
04.01.2015 16:05 -0,3 C 96 % 1030,6 hPa 0,0 l/m 0,0 km/h (0 Bft) W-SW 247 -0,9 C -2,8 C 0,0 km/h (0 Bft)
04.01.2015 16:10 -0,3 C 96 % 1030,6 hPa 0,0 l/m 0,0 km/h (0 Bft) W-SW 247 -0,9 C -2,8 C 0,0 km/h (0 Bft)
04.01.2015 16:15 -0,3 C 96 % 1030,8 hPa 0,0 l/m 0,0 km/h (0 Bft) W-SW 247 -0,9 C -2,8 C 0,0 km/h (0 Bft)
04.01.2015 16:20 -0,3 C 96 % 1030,8 hPa 0,0 l/m 0,0 km/h (0 Bft) W-SW 247 -0,9 C -2,8 C 0,0 km/h (0 Bft)
04.01.2015 16:25 -0,3 C 96 % 1030,8 hPa 0,0 l/m 0,0 km/h (0 Bft) W-SW 247 -0,9 C -2,8 C 0,0 km/h (0 Bft)
04.01.2015 16:30 -0,3 C 96 % 1030,8 hPa 0,0 l/m 0,0 km/h (0 Bft) W-SW 247 -0,9 C -2,8 C 0,0 km/h (0 Bft)
04.01.2015 16:33 -0,3 C 96 % 1031,1 hPa 0,0 l/m 0,0 km/h (0 Bft) W-SW 247 -0,9 C -2,8 C 0,0 km/h (0 Bft)
04.01.2015 16:35 -0,3 C 96 % 1031,1 hPa 0,0 l/m 0,0 km/h (0 Bft) W-SW 247 -0,9 C -2,8 C 0,0 km/h (0 Bft)
04.01.2015 16:40 -0,3 C 96 % 1031,1 hPa 0,0 l/m 0,0 km/h (0 Bft) W-SW 247 -0,9 C -2,8 C 0,0 km/h (0 Bft)
04.01.2015 16:45 -0,3 C 96 % 1031,1 hPa 0,0 l/m 0,0 km/h (0 Bft) W-SW 247 -0,9 C -2,8 C 0,0 km/h (0 Bft)
04.01.2015 16:50 -0,3 C 96 % 1031,1 hPa 0,0 l/m 0,0 km/h (0 Bft) W-SW 247 -0,9 C -2,8 C 0,0 km/h (0 Bft)
04.01.2015 16:55 -0,3 C 96 % 1031,3 hPa 0,0 l/m 0,0 km/h (0 Bft) W-SW 247 -0,9 C -2,8 C 0,0 km/h (0 Bft)
04.01.2015 17:00 -0,3 C 96 % 1031,3 hPa 0,0 l/m 0,0 km/h (0 Bft) W-SW 247 -0,9 C -2,8 C 0,0 km/h (0 Bft)
04.01.2015 17:05 -0,3 C 96 % 1031,3 hPa 0,0 l/m 0,0 km/h (0 Bft) W-SW 247 -0,9 C -2,8 C 0,0 km/h (0 Bft)
04.01.2015 17:10 -0,3 C 96 % 1031,3 hPa 0,0 l/m 0,0 km/h (0 Bft) W-SW 247 -0,9 C -2,8 C 0,0 km/h (0 Bft)
04.01.2015 17:15 -0,3 C 96 % 1031,2 hPa 0,0 l/m 0,0 km/h (0 Bft) W-SW 247 -0,9 C -2,8 C 0,0 km/h (0 Bft)
04.01.2015 17:20 -0,3 C 96 % 1031,2 hPa 0,0 l/m 0,0 km/h (0 Bft) W-SW 247 -0,9 C -2,8 C 0,0 km/h (0 Bft)
04.01.2015 17:25 -0,3 C 96 % 1031,2 hPa 0,0 l/m 0,0 km/h (0 Bft) W-SW 247 -0,9 C -2,8 C 0,0 km/h (0 Bft)
04.01.2015 17:30 -0,3 C 96 % 1031,2 hPa 0,0 l/m 0,0 km/h (0 Bft) W-SW 247 -0,9 C -2,8 C 0,0 km/h (0 Bft)
04.01.2015 17:35 -0,3 C 96 % 1031,3 hPa 0,0 l/m 0,0 km/h (0 Bft) W-SW 247 -0,9 C -2,8 C 0,0 km/h (0 Bft)
04.01.2015 17:40 -0,3 C 96 % 1031,3 hPa 0,0 l/m 0,0 km/h (0 Bft) W-SW 247 -0,9 C -2,8 C 0,0 km/h (0 Bft)
04.01.2015 17:45 -0,3 C 96 % 1031,3 hPa 0,0 l/m 0,0 km/h (0 Bft) W-SW 247 -0,9 C -2,8 C 0,0 km/h (0 Bft)
04.01.2015 17:50 -0,3 C 96 % 1031,3 hPa 0,0 l/m 0,0 km/h (0 Bft) W-SW 247 -0,9 C -2,8 C 0,0 km/h (0 Bft)
04.01.2015 17:55 -0,3 C 96 % 1031,3 hPa 0,0 l/m 0,0 km/h (0 Bft) W-SW 247 -0,9 C -2,8 C 0,0 km/h (0 Bft)
04.01.2015 18:00 -0,3 C 96 % 1031,3 hPa 0,0 l/m 0,0 km/h (0 Bft) W-SW 247 -0,9 C -2,8 C 0,0 km/h (0 Bft)
04.01.2015 18:05 -0,3 C 96 % 1031,3 hPa 0,0 l/m 0,0 km/h (0 Bft) W-SW 247 -0,9 C -2,8 C 0,0 km/h (0 Bft)
04.01.2015 18:10 -0,3 C 96 % 1031,3 hPa 0,0 l/m 0,0 km/h (0 Bft) W-SW 247 -0,9 C -2,8 C 0,0 km/h (0 Bft)
04.01.2015 18:15 -0,3 C 96 % 1031,4 hPa 0,0 l/m 0,0 km/h (0 Bft) W-SW 247 -0,9 C -2,8 C 0,0 km/h (0 Bft)
04.01.2015 18:20 -0,3 C 96 % 1031,4 hPa 0,0 l/m 0,0 km/h (0 Bft) W-SW 247 -0,9 C -2,8 C 0,0 km/h (0 Bft)
04.01.2015 18:25 -0,3 C 96 % 1031,4 hPa 0,0 l/m 0,0 km/h (0 Bft) W-SW 247 -0,9 C -2,8 C 0,0 km/h (0 Bft)
04.01.2015 18:30 -0,3 C 96 % 1031,4 hPa 0,0 l/m 0,0 km/h (0 Bft) W-SW 247 -0,9 C -2,8 C 0,0 km/h (0 Bft)
04.01.2015 18:35 -0,3 C 96 % 1031,3 hPa 0,0 l/m 0,0 km/h (0 Bft) W-SW 247 -0,9 C -2,8 C 0,0 km/h (0 Bft)
04.01.2015 18:40 -0,3 C 96 % 1031,3 hPa 0,0 l/m 0,0 km/h (0 Bft) W-SW 247 -0,9 C -2,8 C 0,0 km/h (0 Bft)
04.01.2015 18:45 -0,3 C 96 % 1031,3 hPa 0,0 l/m 0,0 km/h (0 Bft) W-SW 247 -0,9 C -2,8 C 0,0 km/h (0 Bft)
04.01.2015 18:50 -0,3 C 96 % 1031,3 hPa 0,0 l/m 0,0 km/h (0 Bft) W-SW 247 -0,9 C -2,8 C 0,0 km/h (0 Bft)
04.01.2015 18:55 -0,3 C 96 % 1031,6 hPa 0,0 l/m 0,0 km/h (0 Bft) W-SW 247 -0,9 C -2,8 C 0,0 km/h (0 Bft)
04.01.2015 19:00 -0,3 C 96 % 1031,6 hPa 0,0 l/m 0,0 km/h (0 Bft) W-SW 247 -0,9 C -2,8 C 0,0 km/h (0 Bft)
04.01.2015 19:05 -0,3 C 96 % 1031,6 hPa 0,0 l/m 0,0 km/h (0 Bft) W-SW 247 -0,9 C -2,8 C 0,0 km/h (0 Bft)
04.01.2015 19:10 -0,3 C 96 % 1031,6 hPa 0,0 l/m 0,0 km/h (0 Bft) W-SW 247 -0,9 C -2,8 C 0,0 km/h (0 Bft)
04.01.2015 19:15 -0,3 C 96 % 1031,8 hPa 0,0 l/m 0,0 km/h (0 Bft) W-SW 247 -0,9 C -2,8 C 0,0 km/h (0 Bft)
04.01.2015 19:20 -0,3 C 96 % 1031,8 hPa 0,0 l/m 0,0 km/h (0 Bft) W-SW 247 -0,9 C -2,8 C 0,0 km/h (0 Bft)
04.01.2015 19:25 -0,3 C 96 % 1031,8 hPa 0,0 l/m 0,0 km/h (0 Bft) W-SW 247 -0,9 C -2,8 C 0,0 km/h (0 Bft)
04.01.2015 19:30 -0,3 C 96 % 1031,8 hPa 0,0 l/m 0,0 km/h (0 Bft) W-SW 247 -0,9 C -2,8 C 0,0 km/h (0 Bft)
04.01.2015 19:33 -0,3 C 96 % 1032,1 hPa 0,0 l/m 0,0 km/h (0 Bft) W-SW 247 -0,9 C -2,8 C 0,0 km/h (0 Bft)
04.01.2015 19:35 -0,3 C 96 % 1032,1 hPa 0,0 l/m 0,0 km/h (0 Bft) W-SW 247 -0,9 C -2,8 C 0,0 km/h (0 Bft)
04.01.2015 19:40 -0,3 C 96 % 1032,1 hPa 0,0 l/m 0,0 km/h (0 Bft) W-SW 247 -0,9 C -2,8 C 0,0 km/h (0 Bft)
04.01.2015 19:45 -0,3 C 96 % 1032,1 hPa 0,0 l/m 0,0 km/h (0 Bft) W-SW 247 -0,9 C -2,8 C 0,0 km/h (0 Bft)
04.01.2015 19:50 -0,3 C 96 % 1032,1 hPa 0,0 l/m 0,0 km/h (0 Bft) W-SW 247 -0,9 C -2,8 C 0,0 km/h (0 Bft)
04.01.2015 19:55 -0,3 C 96 % 1032,1 hPa 0,0 l/m 0,0 km/h (0 Bft) W-SW 247 -0,9 C -2,8 C 0,0 km/h (0 Bft)
04.01.2015 20:00 -0,3 C 96 % 1032,1 hPa 0,0 l/m 0,0 km/h (0 Bft) W-SW 247 -0,9 C -2,8 C 0,0 km/h (0 Bft)
04.01.2015 20:05 -0,3 C 96 % 1032,1 hPa 0,0 l/m 0,0 km/h (0 Bft) W-SW 247 -0,9 C -2,8 C 0,0 km/h (0 Bft)
04.01.2015 20:10 -0,3 C 96 % 1032,1 hPa 0,0 l/m 0,0 km/h (0 Bft) W-SW 247 -0,9 C -2,8 C 0,0 km/h (0 Bft)
04.01.2015 20:15 -0,3 C 96 % 1032,0 hPa 0,0 l/m 0,0 km/h (0 Bft) W-SW 247 -0,9 C -2,8 C 0,0 km/h (0 Bft)
04.01.2015 20:20 -0,3 C 96 % 1032,0 hPa 0,0 l/m 0,0 km/h (0 Bft) W-SW 247 -0,9 C -2,8 C 0,0 km/h (0 Bft)
04.01.2015 20:25 -0,3 C 96 % 1032,0 hPa 0,0 l/m 0,0 km/h (0 Bft) W-SW 247 -0,9 C -2,8 C 0,0 km/h (0 Bft)
04.01.2015 20:30 -0,3 C 96 % 1032,0 hPa 0,0 l/m 0,0 km/h (0 Bft) W-SW 247 -0,9 C -2,8 C 0,0 km/h (0 Bft)
04.01.2015 20:35 -0,3 C 96 % 1032,0 hPa 0,0 l/m 0,0 km/h (0 Bft) W-SW 247 -0,9 C -2,8 C 0,0 km/h (0 Bft)
04.01.2015 20:40 -0,3 C 96 % 1032,0 hPa 0,0 l/m 0,0 km/h (0 Bft) W-SW 247 -0,9 C -2,8 C 0,0 km/h (0 Bft)
04.01.2015 20:45 -0,3 C 96 % 1032,0 hPa 0,0 l/m 0,0 km/h (0 Bft) W-SW 247 -0,9 C -2,8 C 0,0 km/h (0 Bft)
04.01.2015 20:50 -1,4 C 96 % 1032,0 hPa 0,0 l/m 0,0 km/h (0 Bft) W-SW 247 -2,0 C -2,8 C 0,0 km/h (0 Bft)
04.01.2015 20:55 -1,4 C 96 % 1032,0 hPa 0,0 l/m 0,0 km/h (0 Bft) W-SW 247 -2,0 C -2,8 C 0,0 km/h (0 Bft)
04.01.2015 21:00 -1,4 C 96 % 1031,8 hPa 0,0 l/m 0,0 km/h (0 Bft) W-SW 247 -2,0 C -2,8 C 0,0 km/h (0 Bft)
04.01.2015 21:05 -1,4 C 96 % 1031,8 hPa 0,0 l/m 0,0 km/h (0 Bft) W-SW 247 -2,0 C -2,8 C 0,0 km/h (0 Bft)
04.01.2015 21:10 -1,4 C 96 % 1031,8 hPa 0,0 l/m 0,0 km/h (0 Bft) W-SW 247 -2,0 C -2,8 C 0,0 km/h (0 Bft)
04.01.2015 21:15 -1,4 C 96 % 1031,8 hPa 0,0 l/m 0,0 km/h (0 Bft) W-SW 247 -2,0 C -2,8 C 0,0 km/h (0 Bft)
04.01.2015 21:20 -1,5 C 96 % 1031,9 hPa 0,0 l/m 0,0 km/h (0 Bft) W-SW 247 -2,1 C -2,8 C 0,0 km/h (0 Bft)
04.01.2015 21:25 -1,5 C 96 % 1031,9 hPa 0,0 l/m 0,0 km/h (0 Bft) W-SW 247 -2,1 C -2,8 C 0,0 km/h (0 Bft)
04.01.2015 21:30 -1,5 C 96 % 1031,9 hPa 0,0 l/m 0,0 km/h (0 Bft) W-SW 247 -2,1 C -2,8 C 0,0 km/h (0 Bft)
04.01.2015 21:35 -1,4 C 96 % 1031,9 hPa 0,0 l/m 0,0 km/h (0 Bft) W-SW 247 -2,0 C -2,8 C 0,0 km/h (0 Bft)
04.01.2015 21:40 -1,4 C 96 % 1032,2 hPa 0,0 l/m 0,0 km/h (0 Bft) W-SW 247 -2,0 C -2,8 C 0,0 km/h (0 Bft)
04.01.2015 21:45 -1,4 C 96 % 1032,2 hPa 0,0 l/m 0,0 km/h (0 Bft) W-SW 247 -2,0 C -2,8 C 0,0 km/h (0 Bft)
04.01.2015 21:50 -1,4 C 96 % 1032,2 hPa 0,0 l/m 0,0 km/h (0 Bft) W-SW 247 -2,0 C -2,8 C 0,0 km/h (0 Bft)
04.01.2015 21:55 -1,5 C 96 % 1032,2 hPa 0,0 l/m 0,0 km/h (0 Bft) W-SW 247 -2,1 C -2,8 C 0,0 km/h (0 Bft)
04.01.2015 22:00 -1,5 C 96 % 1032,3 hPa 0,0 l/m 0,0 km/h (0 Bft) W-SW 247 -2,1 C -2,8 C 0,0 km/h (0 Bft)
04.01.2015 22:05 -1,6 C 96 % 1032,3 hPa 0,0 l/m 0,0 km/h (0 Bft) W-SW 247 -2,2 C -2,8 C 0,0 km/h (0 Bft)
04.01.2015 22:10 -1,6 C 96 % 1032,3 hPa 0,0 l/m 0,0 km/h (0 Bft) W-SW 247 -2,2 C -2,8 C 0,0 km/h (0 Bft)
04.01.2015 22:15 -1,6 C 96 % 1032,3 hPa 0,0 l/m 0,0 km/h (0 Bft) W-SW 247 -2,2 C -2,8 C 0,0 km/h (0 Bft)
04.01.2015 22:20 -1,6 C 96 % 1032,4 hPa 0,0 l/m 0,0 km/h (0 Bft) W-SW 247 -2,2 C -2,8 C 0,0 km/h (0 Bft)
04.01.2015 22:25 -1,6 C 96 % 1032,4 hPa 0,0 l/m 0,0 km/h (0 Bft) W-SW 247 -2,2 C -2,8 C 0,0 km/h (0 Bft)
04.01.2015 22:28 -1,7 C 96 % 1032,4 hPa 0,0 l/m 0,0 km/h (0 Bft) W-SW 247 -2,3 C -2,8 C 0,0 km/h (0 Bft)
04.01.2015 22:30 -1,7 C 96 % 1032,4 hPa 0,0 l/m 0,0 km/h (0 Bft) W-SW 247 -2,3 C -2,8 C 0,0 km/h (0 Bft)
04.01.2015 22:35 -1,7 C 96 % 1032,4 hPa 0,0 l/m 0,0 km/h (0 Bft) W-SW 247 -2,3 C -2,8 C 0,0 km/h (0 Bft)
04.01.2015 22:40 -1,8 C 96 % 1032,6 hPa 0,0 l/m 0,0 km/h (0 Bft) W-SW 247 -2,4 C -2,8 C 0,0 km/h (0 Bft)
04.01.2015 22:45 -1,8 C 96 % 1032,6 hPa 0,0 l/m 0,0 km/h (0 Bft) W-SW 247 -2,4 C -2,8 C 0,0 km/h (0 Bft)
04.01.2015 22:50 -1,8 C 96 % 1032,6 hPa 0,0 l/m 0,0 km/h (0 Bft) W-SW 247 -2,4 C -2,8 C 0,0 km/h (0 Bft)
04.01.2015 22:55 -1,9 C 96 % 1032,6 hPa 0,0 l/m 0,0 km/h (0 Bft) W-SW 247 -2,5 C -2,8 C 0,0 km/h (0 Bft)
04.01.2015 23:00 -2,0 C 96 % 1032,8 hPa 0,0 l/m 0,0 km/h (0 Bft) W-SW 247 -2,6 C -2,8 C 0,0 km/h (0 Bft)
04.01.2015 23:05 -2,0 C 96 % 1032,8 hPa 0,0 l/m 0,0 km/h (0 Bft) W-SW 247 -2,6 C -2,8 C 0,0 km/h (0 Bft)
04.01.2015 23:10 -2,1 C 96 % 1032,8 hPa 0,0 l/m 0,0 km/h (0 Bft) W-SW 247 -2,6 C -2,8 C 0,0 km/h (0 Bft)
04.01.2015 23:15 -2,1 C 96 % 1032,8 hPa 0,0 l/m 0,0 km/h (0 Bft) W-SW 247 -2,6 C -2,8 C 0,0 km/h (0 Bft)
04.01.2015 23:20 -2,1 C 96 % 1032,4 hPa 0,0 l/m 0,0 km/h (0 Bft) W-SW 247 -2,6 C -2,8 C 0,0 km/h (0 Bft)
04.01.2015 23:25 -2,1 C 96 % 1032,4 hPa 0,0 l/m 0,0 km/h (0 Bft) W-SW 247 -2,6 C -2,8 C 0,0 km/h (0 Bft)
04.01.2015 23:30 -2,0 C 96 % 1032,4 hPa 0,0 l/m 0,0 km/h (0 Bft) W-SW 247 -2,6 C -2,8 C 0,0 km/h (0 Bft)
04.01.2015 23:35 -2,0 C 96 % 1032,4 hPa 0,0 l/m 0,0 km/h (0 Bft) W-SW 247 -2,6 C -2,8 C 0,0 km/h (0 Bft)
04.01.2015 23:40 -2,0 C 96 % 1032,8 hPa 0,0 l/m 0,0 km/h (0 Bft) W-SW 247 -2,6 C -2,8 C 0,0 km/h (0 Bft)
04.01.2015 23:45 -2,1 C 96 % 1032,8 hPa 0,0 l/m 0,0 km/h (0 Bft) W-SW 247 -2,6 C -2,8 C 0,0 km/h (0 Bft)
04.01.2015 23:50 -2,1 C 96 % 1032,8 hPa 0,0 l/m 0,0 km/h (0 Bft) W-SW 247 -2,6 C -2,8 C 0,0 km/h (0 Bft)
04.01.2015 23:55 -2,1 C 96 % 1032,8 hPa 0,0 l/m 0,0 km/h (0 Bft) W-SW 247 -2,6 C -2,8 C 0,0 km/h (0 Bft)
_ Min-Zeit 23:55 00:10 00:10 - 23:55 - - 23:55 01:25 23:55
Minimum _ -2,1 C 89 % 1016,9 hPa - 0,0 km/h (0 Bft) - - -2,6 C -10,6 C 0,0 km/h (0 Bft)
_ Max-Zeit 00:00 12:50 23:55 23:55 00:05 - - 00:50 04:20 00:40
Maximum _ 5,7 C 97 % 1032,8 hPa 0,0 l/m 21,4 km/h
SW (4 Bft)
- - 4,4 C 0,0 C 34,0 km/h
W (5 Bft)
Durchschnitt _ 0,0 C 96 % 1028,0 hPa #0,0 l/m 3,0 km/h (1 Bft) W - -0,5 C -2,9 C 3,6 km/h (1 Bft)